Flight Track Log - Related Links

Times and Time Zones

All times are in EDT time to prevent confusion due to time zone crossing. See the FLG3432 flight status page for this flight to view local times or setup timezone preferences in your user account.

Time Position Orientation Groundspeed Altitude Reporting Facility
EDT Latitude Longitude Course Direction KTS MPH feet Rate Location/Type
Tue 07:38:04 PM 40.8158 -111.9819 163° South 181 208 4,900  Level Salt Lake Center
Tue 07:38:59 PM 40.8664 -111.9875 355° North 190 219 6,200 1,552 Climbing Salt Lake Center
Tue 07:40:00 PM 40.9319 -111.9933 356° North 234 269 7,900 1,774 Climbing Salt Lake Center
Tue 07:40:54 PM 40.9997 -111.9986 357° North 260 299 9,600 1,667 Climbing Salt Lake Center
Tue 07:41:00 PM 41.1237 -111.7947 108° East  Level FlightAware Approximate
Tue 07:41:30 PM 41.0228 -111.9681 45° Northeast 277 319 10,400  Level Salt Lake Center
Tue 07:42:00 PM 41.0250 -111.7259 163° South  Level FlightAware Approximate
Tue 07:42:32 PM 40.9911 -111.8667 112° Southeast 278 320 12,100  Level Salt Lake Center
Tue 07:43:00 PM 40.9114 -111.6791 163° South  Level FlightAware Approximate
Tue 07:43:33 PM 40.9344 -111.7806 131° Southeast 324 373 13,000  Level Salt Lake Center
Tue 07:44:35 PM 40.8694 -111.6800 131° Southeast 359 413 14,800 1,452 Climbing Salt Lake Center
Tue 07:45:37 PM 40.8006 -111.5744 131° Southeast 379 436 16,000 1,548 Climbing Salt Lake Center
Tue 07:46:39 PM 40.7133 -111.4392 130° Southeast 402 463 18,000 1,790 Climbing Salt Lake Center
Tue 07:47:41 PM 40.6636 -111.3036 116° Southeast 416 479 19,700 1,415 Climbing Salt Lake Center
Tue 07:48:42 PM 40.6222 -111.1606 111° Southeast 417 480 20,900 1,268 Climbing Salt Lake Center
Tue 07:49:44 PM 40.5786 -111.0119 111° Southeast 430 495 22,300 1,306 Climbing Salt Lake Center
Tue 07:50:46 PM 40.5336 -110.8606 111° Southeast 443 510 23,600 1,113 Climbing Salt Lake Center
Tue 07:51:48 PM 40.4889 -110.7075 111° Southeast 450 518 24,600 968 Climbing Salt Lake Center
Tue 07:52:50 PM 40.4397 -110.5428 111° Southeast 459 528 25,600 976 Climbing Salt Lake Center
Tue 07:53:51 PM 40.3539 -110.3894 126° Southeast 470 541 26,600 1,073 Climbing Salt Lake Center
Tue 07:54:53 PM 40.2650 -110.2761 136° Southeast 468 539 27,800 1,258 Climbing Salt Lake Center
Tue 07:55:55 PM 40.1606 -110.1436 136° Southeast 470 541 29,200 1,210 Climbing Salt Lake Center
Tue 07:56:57 PM 40.0869 -110.0106 126° Southeast 471 542 30,300 1,268 Climbing Salt Lake Center
Tue 07:57:58 PM 40.0039 -109.8539 125° Southeast 471 542 31,800 1,268 Climbing Salt Lake Center
Tue 07:59:00 PM 39.9333 -109.7217 125° Southeast 466 536 32,900 823 Climbing Salt Lake Center
Tue 08:00:02 PM 39.8633 -109.5883 124° Southeast 466 536 33,500 732 Climbing Salt Lake Center
Tue 08:01:03 PM 39.7797 -109.4331 125° Southeast 470 541 34,400 804 Climbing Salt Lake Center
Tue 08:01:54 PM 39.7203 -109.3208 125° Southeast 470 541 35,000 321 Climbing Denver Center
Tue 08:02:55 PM 39.6342 -109.1631 125° Southeast 482 555 35,000  Level Denver Center
Tue 08:03:57 PM 39.5589 -109.0253 125° Southeast 494 568 35,000  Level Denver Center
Tue 08:04:59 PM 39.4719 -108.8647 125° Southeast 496 571 35,000  Level Denver Center
Tue 08:06:00 PM 39.3967 -108.7264 125° Southeast 499 574 35,000  Level Denver Center
Tue 08:07:02 PM 39.3097 -108.5653 125° Southeast 493 567 35,000  Level Denver Center
Tue 08:08:04 PM 39.2342 -108.4269 125° Southeast 494 568 35,000  Level Denver Center
Tue 08:09:06 PM 39.1469 -108.2664 125° Southeast 482 555 35,000  Level Denver Center
Tue 08:10:07 PM 39.0700 -108.1294 126° Southeast 491 565 35,000  Level Denver Center
Tue 08:11:09 PM 38.9811 -107.9722 126° Southeast 487 560 35,000  Level Denver Center
Tue 08:12:11 PM 38.9056 -107.8389 126° Southeast 482 555 35,000  Level Denver Center
Tue 08:13:13 PM 38.8297 -107.7047 126° Southeast 483 556 35,000 146 Level Denver Center
Tue 08:14:14 PM 38.7408 -107.5467 126° Southeast 489 563 35,300 439 Climbing Denver Center
Tue 08:15:16 PM 38.6631 -107.4108 126° Southeast 493 567 35,900 823 Climbing Denver Center
Tue 08:16:18 PM 38.5736 -107.2539 126° Southeast 491 565 37,000 532 Climbing Denver Center
Tue 08:17:20 PM 38.4928 -107.1133 126° Southeast 486 559 37,000  Level Denver Center
Tue 08:18:21 PM 38.4119 -106.9717 126° Southeast 493 567 37,000  Level Denver Center
Tue 08:19:23 PM 38.3303 -106.8256 125° Southeast 495 570 37,000  Level Denver Center
Tue 08:20:25 PM 38.2539 -106.6872 125° Southeast 497 572 37,000  Level Denver Center
Tue 08:21:26 PM 38.1642 -106.5286 126° Southeast 494 568 37,000  Level Denver Center
Tue 08:22:28 PM 38.0919 -106.4017 126° Southeast 496 571 37,000  Level Denver Center
Tue 08:23:30 PM 38.0006 -106.2378 125° Southeast 489 563 37,000  Level Denver Center
Tue 08:24:32 PM 37.9242 -106.1058 126° Southeast 486 559 37,000  Level Denver Center
Tue 08:25:33 PM 37.8272 -105.9650 131° Southeast 476 548 37,000  Level Denver Center
Tue 08:26:35 PM 37.7156 -105.8833 150° Southeast 483 556 37,000  Level Denver Center
Tue 08:27:37 PM 37.5892 -105.7908 150° Southeast 474 545 37,000  Level Denver Center
Tue 08:28:38 PM 37.4717 -105.7053 150° Southeast 480 552 37,000  Level Denver Center
Tue 08:29:40 PM 37.3614 -105.6231 149° Southeast 481 554 37,000  Level Denver Center
Tue 08:30:42 PM 37.2675 -105.4881 131° Southeast 482 555 37,000  Level Denver Center
Tue 08:31:43 PM 37.1953 -105.3481 123° Southeast 493 567 37,000  Level Denver Center
Tue 08:32:45 PM 37.1111 -105.1839 123° Southeast 501 577 37,000  Level Denver Center
Tue 08:33:47 PM 37.0375 -105.0422 123° Southeast 506 582 37,000  Level Denver Center
Tue 08:34:49 PM 36.9547 -104.8808 123° Southeast 499 574 37,000  Level Denver Center
Tue 08:35:50 PM 36.8853 -104.7408 122° Southeast 495 570 37,000  Level Denver Center
Tue 08:36:52 PM 36.8114 -104.5706 118° Southeast 499 574 37,000  Level Denver Center
Tue 08:38:01 PM 36.7381 -104.4039 119° Southeast 496 571 37,000  Level Albuquerque Center
Tue 08:39:03 PM 36.6700 -104.2506 119° Southeast 495 570 37,000  Level Albuquerque Center
Tue 08:40:04 PM 36.6017 -104.1003 119° Southeast 494 568 37,000  Level Albuquerque Center
Tue 08:41:06 PM 36.5356 -103.9500 119° Southeast 492 566 37,000  Level Albuquerque Center
Tue 08:42:07 PM 36.4678 -103.7989 119° Southeast 493 567 37,000  Level Albuquerque Center
Tue 08:43:09 PM 36.4000 -103.6472 119° Southeast 496 571 37,000  Level Albuquerque Center
Tue 08:44:10 PM 36.3322 -103.4978 119° Southeast 493 567 37,000  Level Albuquerque Center
Tue 08:45:12 PM 36.2647 -103.3481 119° Southeast 492 566 37,000  Level Albuquerque Center
Tue 08:46:14 PM 36.1964 -103.1981 119° Southeast 494 568 37,000  Level Albuquerque Center
Tue 08:47:15 PM 36.1289 -103.0517 120° Southeast 488 562 37,000  Level Albuquerque Center
Tue 08:48:17 PM 36.0589 -102.8994 120° Southeast 490 564 37,000  Level Albuquerque Center
Tue 08:49:18 PM 35.9928 -102.7533 119° Southeast 488 562 37,000  Level Albuquerque Center
Tue 08:50:20 PM 35.9111 -102.5808 120° Southeast 487 560 37,000  Level Albuquerque Center
Tue 08:51:21 PM 35.8442 -102.4353 120° Southeast 487 560 37,000  Level Albuquerque Center
Tue 08:52:23 PM 35.7761 -102.2922 120° Southeast 486 559 37,000  Level Albuquerque Center
Tue 08:53:25 PM 35.7083 -102.1469 120° Southeast 488 562 37,000  Level Albuquerque Center
Tue 08:54:26 PM 35.6406 -102.0036 120° Southeast 486 559 37,000  Level Albuquerque Center
Tue 08:55:28 PM 35.5728 -101.8594 120° Southeast 486 559 37,000  Level Albuquerque Center
Tue 08:56:29 PM 35.5039 -101.7117 120° Southeast 485 558 37,000  Level Albuquerque Center
Tue 08:57:31 PM 35.4306 -101.5617 121° Southeast 488 562 37,000  Level Albuquerque Center
Tue 08:58:33 PM 35.3619 -101.4197 121° Southeast 487 560 37,000  Level Albuquerque Center
Tue 08:59:34 PM 35.2944 -101.2797 121° Southeast 487 560 37,000  Level Albuquerque Center
Tue 09:00:36 PM 35.2250 -101.1372 121° Southeast 487 560 37,000  Level Albuquerque Center
Tue 09:01:37 PM 35.1417 -100.9678 121° Southeast 484 557 37,000  Level Albuquerque Center
Tue 09:02:39 PM 35.0733 -100.8267 121° Southeast 483 556 37,000  Level Albuquerque Center
Tue 09:03:41 PM 35.0050 -100.6872 121° Southeast 482 555 37,000  Level Albuquerque Center
Tue 09:04:42 PM 34.9369 -100.5508 121° Southeast 475 547 37,000  Level Albuquerque Center
Tue 09:05:44 PM 34.8703 -100.4153 121° Southeast 469 540 37,000  Level Albuquerque Center
Tue 09:06:45 PM 34.8008 -100.2758 121° Southeast 472 543 37,000  Level Albuquerque Center
Tue 09:07:47 PM 34.7314 -100.1350 121° Southeast 482 555 37,000  Level Albuquerque Center
Tue 09:08:49 PM 34.6600 -99.9933 121° Southeast 490 564 37,000  Level Albuquerque Center
Tue 09:09:50 PM 34.5917 -99.8564 121° Southeast 480 552 37,000  Level Albuquerque Center
Tue 09:10:52 PM 34.5097 -99.6969 122° Southeast 468 539 37,000  Level Albuquerque Center
Tue 09:11:54 PM 34.4403 -99.5592 121° Southeast 475 547 37,000  Level Albuquerque Center
Tue 09:12:55 PM 34.3700 -99.4206 122° Southeast 482 555 37,000  Level Albuquerque Center
Tue 09:13:57 PM 34.2981 -99.2800 122° Southeast 488 562 37,000  Level Albuquerque Center
Tue 09:14:58 PM 34.2264 -99.1403 122° Southeast 490 564 37,000 -591 Level Albuquerque Center
Tue 09:16:09 PM 34.1322 -98.9667 123° Southeast 475 547 35,700 -1,099 Descending Fort Worth Center
Tue 09:17:09 PM 34.0692 -98.8350 120° Southeast 490 564 34,600 -1,200 Descending Fort Worth Center
Tue 09:18:09 PM 33.9914 -98.6886 123° Southeast 496 571 33,300 -1,600 Descending Fort Worth Center
Tue 09:19:09 PM 33.9156 -98.5547 124° Southeast 496 571 31,400 -2,250 Descending Fort Worth Center
Tue 09:20:09 PM 33.8375 -98.4236 126° Southeast 485 558 28,800 -2,500 Descending Fort Worth Center
Tue 09:21:09 PM 33.7778 -98.3156 124° Southeast 485 558 26,400 -3,000 Descending Fort Worth Center
Tue 09:22:09 PM 33.6869 -98.1647 126° Southeast 475 547 22,800 -3,250 Descending Fort Worth Center
Tue 09:23:09 PM 33.6228 -98.0519 124° Southeast 467 537 19,900 -2,950 Descending Fort Worth Center
Tue 09:24:09 PM 33.5442 -97.9194 125° Southeast 447 514 16,900 -2,850 Descending Fort Worth Center
Tue 09:25:09 PM 33.4797 -97.8094 125° Southeast 420 483 14,200 -2,500 Descending Fort Worth Center
Tue 09:26:09 PM 33.4175 -97.7022 125° Southeast 399 459 11,900 -1,800 Descending Fort Worth Center
Tue 09:27:09 PM 33.3614 -97.6175 128° Southeast 381 438 10,600 -1,250 Descending Fort Worth Center
Tue 09:28:09 PM 33.3031 -97.5378 131° Southeast 336 387 9,400 -1,450 Descending Fort Worth Center
Tue 09:29:09 PM 33.2403 -97.4581 133° Southeast 306 352 7,700 -1,450 Descending Fort Worth Center
Tue 09:30:09 PM 33.1903 -97.3986 135° Southeast 296 341 6,500 -1,415 Descending Fort Worth Center
Tue 09:31:12 PM 33.1333 -97.3167 130° Southeast 265 305 4,800 -1,610 Descending Dallas / Fort Worth TRACON
Tue 09:32:12 PM 33.0833 -97.2667 140° Southeast 251 289 3,200 -1,100 Descending Dallas / Fort Worth TRACON
Tue 09:33:12 PM 33.0333 -97.2167 140° Southeast 194 223 2,600 -450 Descending Dallas / Fort Worth TRACON
Tue 09:34:12 PM 33.0000 -97.1667 128° Southeast 163 188 2,300 -300 Descending Dallas / Fort Worth TRACON

Login

Don't have an account? Register now (free) for customized features, flight alerts, and more!